Time;durP1;ratioP1;P1;durP2;ratioP2;P2;SDS_P1;SDS_P2;PMS_P1;PMS_P2;Temp;Humidity;BMP_temperature;BMP_pressure;BME280_temperature;BME280_humidity;BME280_pressure;Samples;Min_cycle;Max_cycle;Signal;HPM_P1;HPM_P2
2022/12/05 00:01:19;;;;;;;18.27;14.87;;;;;;;2.51;100.00;95913.28;5047185;28;21019;-74
2022/12/05 00:03:47;;;;;;;22.20;17.60;;;;;;;2.71;100.00;95949.50;5014746;28;20462;-73
2022/12/05 00:06:15;;;;;;;26.10;17.80;;;;;;;2.66;100.00;95950.34;5047237;28;20450;-74
2022/12/05 00:08:43;;;;;;;22.57;16.23;;;;;;;2.69;100.00;95958.69;5030135;28;20440;-74
2022/12/05 00:11:16;;;;;;;25.30;17.33;;;;;;;2.61;100.00;95949.66;5029674;28;20446;-74
2022/12/05 00:13:44;;;;;;;21.40;17.03;;;;;;;2.45;100.00;95922.25;5029926;28;20473;-74
2022/12/05 00:16:13;;;;;;;18.83;14.60;;;;;;;2.42;100.00;95923.59;5030858;28;20483;-74
2022/12/05 00:18:41;;;;;;;19.70;14.10;;;;;;;2.38;100.00;95902.50;5029645;28;20422;-74
2022/12/05 00:21:13;;;;;;;18.20;15.07;;;;;;;2.67;100.00;95958.94;5029326;28;20462;-74
2022/12/05 00:23:40;;;;;;;24.03;16.37;;;;;;;2.47;100.00;95936.53;5030895;28;20528;-74
2022/12/05 00:26:07;;;;;;;22.10;16.33;;;;;;;2.61;100.00;95954.88;5046009;28;20517;-74
2022/12/05 00:28:34;;;;;;;20.97;15.03;;;;;;;2.60;100.00;95955.94;5029416;28;20442;-74
2022/12/05 00:31:10;;;;;;;20.77;15.40;;;;;;;2.69;100.00;95969.13;5017654;28;20465;-74
2022/12/05 00:33:39;;;;;;;22.03;15.40;;;;;;;2.65;100.00;95971.50;5040935;28;20484;-74
2022/12/05 00:36:21;;;;;;;19.00;15.90;;;;;;;2.64;100.00;95973.34;5050662;28;20432;-74
2022/12/05 00:38:51;;;;;;;20.23;15.83;;;;;;;2.70;100.00;95978.50;5050541;28;20452;-74
2022/12/05 00:41:20;;;;;;;22.10;15.47;;;;;;;2.66;100.00;95970.44;5032543;28;20487;-74
2022/12/05 00:43:48;;;;;;;18.20;15.13;;;;;;;2.67;100.00;95977.22;5049828;28;20436;-74
2022/12/05 00:46:18;;;;;;;21.37;16.97;;;;;;;2.55;100.00;95966.44;5049567;28;20804;-74
2022/12/05 00:48:46;;;;;;;27.83;15.97;;;;;;;2.63;100.00;95982.22;5051501;28;20429;-74
2022/12/05 00:51:19;;;;;;;18.23;15.13;;;;;;;2.55;100.00;95962.00;5037186;28;20478;-73
2022/12/05 00:53:47;;;;;;;21.87;15.47;;;;;;;2.59;100.00;95981.25;5020279;28;20468;-74
2022/12/05 00:56:20;;;;;;;17.07;13.80;;;;;;;2.64;100.00;95975.16;5034770;28;20469;-74
2022/12/05 00:58:49;;;;;;;21.23;16.70;;;;;;;2.64;100.00;95981.16;5035629;28;20440;-74
2022/12/05 01:01:22;;;;;;;18.63;14.47;;;;;;;2.70;100.00;95984.50;5048467;28;20464;-74
2022/12/05 01:03:53;;;;;;;20.73;16.40;;;;;;;2.58;100.00;95984.16;5023793;28;20529;-75
2022/12/05 01:06:21;;;;;;;17.80;15.60;;;;;;;2.60;100.00;95977.56;5029521;28;20449;-75
2022/12/05 01:08:48;;;;;;;20.63;15.73;;;;;;;2.53;100.00;95984.19;5040180;28;20430;-75
2022/12/05 01:11:17;;;;;;;22.03;18.50;;;;;;;2.56;100.00;95991.50;5032953;28;20514;-75
2022/12/05 01:13:44;;;;;;;19.57;14.43;;;;;;;2.66;100.00;95993.94;5033148;28;20485;-74
2022/12/05 01:16:17;;;;;;;21.27;15.87;;;;;;;2.47;100.00;95977.50;5033776;28;20437;-75
2022/12/05 01:18:46;;;;;;;21.57;16.57;;;;;;;2.44;100.00;95978.88;5017759;28;20430;-75
2022/12/05 01:21:14;;;;;;;23.50;17.60;;;;;;;2.64;100.00;96002.03;5033237;28;20470;-75
2022/12/05 01:23:43;;;;;;;24.00;16.47;;;;;;;2.49;100.00;95991.81;5034063;28;20511;-75
2022/12/05 01:26:12;;;;;;;25.03;17.63;;;;;;;2.51;100.00;95994.16;5033541;28;20438;-75
2022/12/05 01:28:40;;;;;;;21.07;17.37;;;;;;;2.19;100.00;95956.50;5033181;28;20496;-75
2022/12/05 01:31:16;;;;;;;21.83;16.50;;;;;;;2.50;100.00;96010.88;5032426;28;20469;-75
2022/12/05 01:33:43;;;;;;;20.50;15.60;;;;;;;2.42;100.00;95999.25;5032599;28;20485;-76
2022/12/05 01:36:11;;;;;;;26.23;18.93;;;;;;;2.58;100.00;96018.06;5016217;28;20532;-75
2022/12/05 01:38:39;;;;;;;24.27;17.10;;;;;;;2.37;100.00;95989.63;5045669;28;20440;-75
2022/12/05 01:41:14;;;;;;;24.37;16.50;;;;;;;2.54;100.00;96014.47;5015887;28;20485;-75
2022/12/05 01:44:02;;;;;;;29.20;18.10;;;;;;;2.40;100.00;95996.13;5032120;28;20430;-75
2022/12/05 01:46:43;;;;;;;24.87;18.00;;;;;;;2.53;100.00;96024.09;5032518;28;20436;-76
2022/12/05 01:49:15;;;;;;;24.10;16.70;;;;;;;2.37;100.00;95999.28;5042540;28;20472;-76
2022/12/05 01:51:47;;;;;;;23.27;16.60;;;;;;;2.56;100.00;96020.19;5035689;28;20437;-75
2022/12/05 01:54:17;;;;;;;26.93;17.27;;;;;;;2.50;100.00;96009.03;5052031;28;20532;-75
2022/12/05 01:56:53;;;;;;;24.37;18.50;;;;;;;2.51;100.00;96015.78;5031381;28;20449;-75
2022/12/05 01:59:21;;;;;;;31.23;18.73;;;;;;;2.16;100.00;95964.91;5031905;28;20809;-75
2022/12/05 02:01:48;;;;;;;23.43;16.97;;;;;;;2.37;100.00;96015.72;5031930;28;20442;-75
2022/12/05 02:04:15;;;;;;;24.60;18.20;;;;;;;2.36;100.00;96002.97;5043689;28;20426;-75
2022/12/05 02:06:42;;;;;;;23.87;18.27;;;;;;;2.29;100.00;96005.94;5051609;28;20544;-75
2022/12/05 02:09:09;;;;;;;23.40;17.67;;;;;;;2.25;100.00;96004.91;5051815;28;20455;-75
2022/12/05 02:11:56;;;;;;;27.03;20.03;;;;;;;2.22;100.00;95989.84;5045640;28;20466;-75
2022/12/05 02:15:02;;;;;;;25.67;18.57;;;;;;;2.24;100.00;95992.94;5031649;28;20464;-74
2022/12/05 02:17:46;;;;;;;19.37;15.90;;;;;;;2.47;100.00;96027.09;5032986;28;20429;-74
2022/12/05 02:20:22;;;;;;;23.40;18.13;;;;;;;2.52;100.00;96030.38;5031357;28;20561;-75
2022/12/05 02:23:18;;;;;;;24.10;17.00;;;;;;;2.43;100.00;96023.50;5031520;28;20521;-75
2022/12/05 02:25:48;;;;;;;26.07;16.47;;;;;;;2.46;100.00;96039.34;5031787;28;20956;-75
2022/12/05 02:28:39;;;;;;;20.60;17.10;;;;;;;2.41;100.00;96043.88;5015066;28;20434;-74
2022/12/05 02:31:21;;;;;;;29.10;18.40;;;;;;;2.36;100.00;96047.31;5017517;28;20457;-74
2022/12/05 02:34:03;;;;;;;24.47;18.07;;;;;;;2.41;100.00;96041.25;5051311;28;20488;-75
2022/12/05 02:36:47;;;;;;;27.40;18.00;;;;;;;2.31;100.00;96010.88;5034701;28;20445;-75
2022/12/05 02:39:32;;;;;;;29.67;18.53;;;;;;;2.50;100.00;96044.78;5035389;28;20433;-75
2022/12/05 02:42:13;;;;;;;24.77;17.33;;;;;;;2.50;100.00;96039.56;5052554;28;20975;-75
2022/12/05 02:44:46;;;;;;;23.00;18.23;;;;;;;2.46;100.00;96041.19;5052554;28;20480;-76
2022/12/05 02:47:17;;;;;;;28.63;19.27;;;;;;;2.49;100.00;96054.44;5045850;28;20414;-76
2022/12/05 02:49:45;;;;;;;26.87;16.93;;;;;;;2.40;100.00;96043.06;5031209;28;20561;-76
2022/12/05 02:52:13;;;;;;;20.50;15.80;;;;;;;2.13;100.00;96009.75;5039992;28;20433;-75
2022/12/05 02:54:43;;;;;;;25.67;17.63;;;;;;;2.22;100.00;96034.16;5036322;28;20829;-75
2022/12/05 02:57:12;;;;;;;26.87;19.13;;;;;;;2.19;100.00;96029.53;5014571;28;20473;-75
2022/12/05 02:59:38;;;;;;;24.27;17.43;;;;;;;2.21;100.00;96037.84;5032894;28;20458;-75
2022/12/05 03:02:08;;;;;;;21.20;17.53;;;;;;;2.31;100.00;96048.16;5050761;28;20436;-75
2022/12/05 03:04:36;;;;;;;26.53;19.07;;;;;;;2.28;100.00;96048.72;5051216;28;20432;-76
2022/12/05 03:07:09;;;;;;;26.03;16.77;;;;;;;2.08;100.00;96017.66;5040888;28;20438;-75
2022/12/05 03:09:55;;;;;;;24.73;17.83;;;;;;;2.26;100.00;96044.81;5031015;28;20449;-75
2022/12/05 03:12:47;;;;;;;24.63;17.03;;;;;;;2.15;100.00;96012.13;5030543;28;20457;-75
2022/12/05 03:15:24;;;;;;;23.20;17.50;;;;;;;2.13;100.00;96022.03;5030404;28;20504;-75
2022/12/05 03:17:58;;;;;;;27.50;19.73;;;;;;;2.22;100.00;96031.56;5031896;28;20429;-75
2022/12/05 03:20:37;;;;;;;29.00;17.07;;;;;;;2.12;100.00;96029.06;5030327;28;20458;-75
2022/12/05 03:23:13;;;;;;;30.30;20.40;;;;;;;2.28;100.00;96050.56;5030287;28;20444;-75
2022/12/05 03:26:16;;;;;;;28.37;18.60;;;;;;;2.31;100.00;96052.59;5031624;28;21358;-75
2022/12/05 03:28:56;;;;;;;27.97;18.57;;;;;;;2.31;100.00;96052.59;5009765;28;20537;-75
2022/12/05 03:31:51;;;;;;;23.13;17.80;;;;;;;2.33;100.00;96053.84;5025211;28;20450;-74
2022/12/05 03:34:41;;;;;;;25.07;17.30;;;;;;;2.36;100.00;96052.53;5030161;28;20524;-74
2022/12/05 03:37:25;;;;;;;25.57;17.57;;;;;;;2.38;100.00;96056.41;5005054;28;20457;-75
2022/12/05 03:40:03;;;;;;;24.03;17.50;;;;;;;2.18;100.00;96038.41;5026309;28;20976;-75
2022/12/05 03:42:34;;;;;;;23.97;17.20;;;;;;;2.25;100.00;96049.25;5033958;28;20447;-75
2022/12/05 03:45:11;;;;;;;26.23;20.57;;;;;;;2.46;100.00;96073.28;5036452;28;20906;-75
2022/12/05 03:47:43;;;;;;;20.07;16.43;;;;;;;2.18;100.00;96037.63;5029820;28;20442;-75
2022/12/05 03:50:18;;;;;;;24.43;18.43;;;;;;;2.41;100.00;96069.97;5029753;28;20504;-75
2022/12/05 03:52:53;;;;;;;25.53;17.07;;;;;;;2.35;100.00;96075.22;5029738;28;20818;-75
2022/12/05 03:55:42;;;;;;;26.67;18.03;;;;;;;2.24;100.00;96052.16;5029881;28;20457;-75
2022/12/05 03:58:23;;;;;;;23.30;17.33;;;;;;;2.22;100.00;96059.47;5013160;28;20434;-75
2022/12/05 04:00:53;;;;;;;26.73;17.50;;;;;;;2.16;100.00;96055.38;5030964;28;20438;-75
2022/12/05 04:03:37;;;;;;;30.83;17.53;;;;;;;2.11;100.00;96058.03;5030905;28;20429;-75
2022/12/05 04:06:29;;;;;;;24.80;17.50;;;;;;;2.16;100.00;96060.59;5029542;28;20434;-75
2022/12/05 04:09:03;;;;;;;29.70;18.57;;;;;;;2.02;100.00;96047.47;5030861;28;20430;-75
2022/12/05 04:11:35;;;;;;;31.67;20.73;;;;;;;2.05;100.00;96055.50;5029490;28;20810;-75
2022/12/05 04:14:20;;;;;;;28.87;17.90;;;;;;;2.05;100.00;96060.72;5041946;28;20505;-75
2022/12/05 04:17:02;;;;;;;34.40;18.93;;;;;;;1.98;100.00;96043.84;5049271;28;20476;-75
2022/12/05 04:22:25;;;;;;;23.37;17.33;;;;;;;2.21;100.00;96061.31;5046787;28;20452;-75
2022/12/05 04:27:46;;;;;;;25.27;19.43;;;;;;;2.31;100.00;96083.91;5035837;28;20421;-75
2022/12/05 04:30:22;;;;;;;30.20;19.27;;;;;;;2.12;100.00;96046.56;5043958;28;20833;-75
2022/12/05 04:33:05;;;;;;;24.37;17.73;;;;;;;2.31;100.00;96070.84;5038930;28;20427;-75
2022/12/05 04:35:39;;;;;;;24.10;16.20;;;;;;;2.25;100.00;96064.91;5032376;28;20461;-75
2022/12/05 04:38:29;;;;;;;26.90;18.40;;;;;;;2.22;100.00;96054.25;5032731;28;20821;-75
2022/12/05 04:41:05;;;;;;;22.37;16.80;;;;;;;2.22;100.00;96062.84;5050139;28;20466;-75
2022/12/05 04:43:40;;;;;;;29.63;17.10;;;;;;;2.04;100.00;96043.53;5032400;28;20929;-75
2022/12/05 04:46:10;;;;;;;28.80;18.00;;;;;;;2.03;100.00;96026.31;5048910;28;20433;-75
2022/12/05 04:48:40;;;;;;;25.37;18.07;;;;;;;2.19;100.00;96049.59;5050265;28;20425;-75
2022/12/05 04:51:11;;;;;;;31.07;18.87;;;;;;;1.95;100.00;96034.75;5032366;28;20453;-75
2022/12/05 04:53:41;;;;;;;30.17;17.80;;;;;;;2.16;100.00;96064.00;5050157;28;20441;-75
2022/12/05 04:56:10;;;;;;;30.77;17.07;;;;;;;2.12;100.00;96039.50;5048694;28;20458;-75
2022/12/05 04:58:36;;;;;;;28.53;17.53;;;;;;;2.42;100.00;96095.75;5050237;28;20435;-74
2022/12/05 05:01:18;;;;;;;24.63;17.00;;;;;;;2.46;100.00;96117.63;5032525;28;20461;-74
2022/12/05 05:03:58;;;;;;;30.80;18.67;;;;;;;2.37;100.00;96093.97;5032352;28;20444;-74
2022/12/05 05:06:26;;;;;;;24.50;17.97;;;;;;;2.30;100.00;96090.94;5050273;28;20766;-75
2022/12/05 05:08:55;;;;;;;27.73;16.73;;;;;;;2.35;100.00;96106.53;5032214;28;20434;-73
2022/12/05 05:11:28;;;;;;;25.73;18.20;;;;;;;2.19;100.00;96086.13;5048614;28;20483;-73
2022/12/05 05:13:55;;;;;;;21.63;17.07;;;;;;;2.27;100.00;96090.69;5050148;28;20421;-73
2022/12/05 05:16:30;;;;;;;21.70;18.07;;;;;;;2.39;100.00;96117.16;5048944;28;20437;-74
2022/12/05 05:18:57;;;;;;;25.83;17.70;;;;;;;2.25;100.00;96098.81;5018301;28;20426;-74
2022/12/05 05:21:33;;;;;;;27.27;19.30;;;;;;;2.51;100.00;96130.59;5028774;28;20845;-74
2022/12/05 05:24:00;;;;;;;24.27;18.33;;;;;;;2.53;100.00;96131.09;5029049;28;20476;-74
2022/12/05 05:26:29;;;;;;;24.40;17.53;;;;;;;2.49;100.00;96132.72;5028919;28;21052;-74
2022/12/05 05:28:57;;;;;;;24.70;16.93;;;;;;;2.55;100.00;96130.84;5030080;28;20947;-74
2022/12/05 05:31:24;;;;;;;22.40;15.77;;;;;;;2.57;100.00;96133.94;5025002;28;20450;-74
2022/12/05 05:33:53;;;;;;;20.43;16.17;;;;;;;2.38;100.00;96110.41;5029138;28;21066;-74
2022/12/05 05:36:22;;;;;;;22.23;15.60;;;;;;;2.45;100.00;96141.38;5029317;28;20466;-75
2022/12/05 05:38:51;;;;;;;24.97;17.47;;;;;;;2.36;100.00;96130.78;5029331;28;20442;-75
2022/12/05 05:41:21;;;;;;;25.63;15.80;;;;;;;2.53;100.00;96141.53;5032320;28;20458;-75
2022/12/05 05:43:49;;;;;;;25.00;16.40;;;;;;;2.47;100.00;96139.28;5033984;28;20433;-75
2022/12/05 05:46:18;;;;;;;24.03;16.77;;;;;;;2.48;100.00;96139.00;5032648;28;20430;-75
2022/12/05 05:48:44;;;;;;;20.03;15.13;;;;;;;2.55;100.00;96125.63;5033789;28;20449;-75
2022/12/05 05:51:13;;;;;;;21.50;16.07;;;;;;;2.70;100.00;96142.91;5033564;28;20450;-75
2022/12/05 05:53:41;;;;;;;25.27;17.87;;;;;;;2.61;100.00;96142.75;5039594;28;20449;-75
2022/12/05 05:56:11;;;;;;;21.90;16.33;;;;;;;2.50;100.00;96136.09;5035313;28;20461;-76
2022/12/05 05:58:44;;;;;;;22.80;16.33;;;;;;;2.38;100.00;96113.00;5044411;28;20639;-76
2022/12/05 06:01:13;;;;;;;24.63;15.90;;;;;;;2.55;100.00;96146.50;5033148;28;20446;-75
2022/12/05 06:03:40;;;;;;;23.20;15.80;;;;;;;2.53;100.00;96143.34;5039938;28;20528;-75
2022/12/05 06:06:10;;;;;;;21.10;16.20;;;;;;;2.57;100.00;96147.75;5036912;28;20529;-76
2022/12/05 06:08:39;;;;;;;21.97;16.27;;;;;;;2.48;100.00;96125.94;5040510;28;20437;-75
2022/12/05 06:11:08;;;;;;;21.67;17.20;;;;;;;2.56;100.00;96133.16;5038290;28;20459;-75
2022/12/05 06:13:35;;;;;;;27.23;17.17;;;;;;;2.53;100.00;96106.84;5043622;28;20422;-75
2022/12/05 06:16:07;;;;;;;24.03;16.03;;;;;;;2.69;100.00;96123.09;5033258;28;20505;-75
2022/12/05 06:18:35;;;;;;;20.63;15.20;;;;;;;2.82;100.00;96135.47;5011936;28;20478;-75
2022/12/05 06:21:02;;;;;;;19.80;14.53;;;;;;;2.84;100.00;96141.16;5044874;28;20484;-75
2022/12/05 06:23:29;;;;;;;23.53;18.00;;;;;;;2.74;100.00;96136.06;5032841;28;20438;-76
2022/12/05 06:25:56;;;;;;;21.20;15.00;;;;;;;2.92;100.00;96156.19;5050086;28;20508;-76
2022/12/05 06:28:24;;;;;;;23.83;16.40;;;;;;;3.01;100.00;96164.97;5039482;28;20470;-75
2022/12/05 06:30:51;;;;;;;20.53;16.10;;;;;;;3.01;100.00;96164.19;5031465;28;20533;-75
2022/12/05 06:33:18;;;;;;;19.87;14.70;;;;;;;2.67;100.00;96139.00;5032880;28;20430;-75
2022/12/05 06:35:45;;;;;;;27.20;17.87;;;;;;;2.92;100.00;96184.91;5031198;28;20478;-75
2022/12/05 06:38:14;;;;;;;22.97;15.23;;;;;;;2.74;100.00;96156.97;5031398;28;20525;-75
2022/12/05 06:40:42;;;;;;;29.43;21.03;;;;;;;2.93;100.00;96161.13;5044237;28;20499;-77
2022/12/05 06:43:09;;;;;;;24.30;18.17;;;;;;;2.91;100.00;96152.03;5030982;28;20450;-76
2022/12/05 06:45:37;;;;;;;19.03;16.57;;;;;;;2.95;100.00;96172.09;5032406;28;20437;-76
2022/12/05 06:48:05;;;;;;;23.60;18.10;;;;;;;3.06;100.00;96167.50;5031054;28;20445;-76
2022/12/05 06:50:32;;;;;;;29.00;18.50;;;;;;;3.15;100.00;96178.09;5013900;28;21054;-76
2022/12/05 06:52:58;;;;;;;16.17;12.97;;;;;;;2.75;100.00;96138.41;5032481;28;20949;-76
2022/12/05 06:55:25;;;;;;;22.27;13.00;;;;;;;2.75;100.00;96151.44;5031081;28;20466;-76
2022/12/05 06:57:51;;;;;;;18.20;13.07;;;;;;;2.85;100.00;96182.66;5031000;28;20460;-77
2022/12/05 07:03:04;;;;;;;10.57;8.57;;;;;;;2.80;100.00;96187.91;5030957;28;20442;-77
2022/12/05 07:05:31;;;;;;;12.83;9.30;;;;;;;2.79;100.00;96198.66;5032187;28;20422;-77
2022/12/05 07:07:58;;;;;;;11.47;9.60;;;;;;;2.61;100.00;96177.44;5034932;28;20881;-77
2022/12/05 07:10:25;;;;;;;12.00;8.93;;;;;;;2.66;100.00;96190.44;5040257;28;20448;-78
2022/12/05 07:12:51;;;;;;;9.63;8.27;;;;;;;2.75;100.00;96190.59;5031021;28;20438;-78
2022/12/05 07:15:18;;;;;;;10.43;8.70;;;;;;;2.64;100.00;96178.72;5031246;28;20500;-78
2022/12/05 07:17:45;;;;;;;8.40;7.17;;;;;;;2.75;100.00;96210.72;5015447;28;20669;-78
2022/12/05 07:20:11;;;;;;;10.20;7.90;;;;;;;2.55;100.00;96188.25;5042313;28;20536;-78
2022/12/05 07:22:38;;;;;;;7.83;6.73;;;;;;;2.73;100.00;96208.38;5017187;28;20514;-77
2022/12/05 07:25:05;;;;;;;10.40;8.07;;;;;;;2.53;100.00;96190.31;5031397;28;20442;-78
2022/12/05 07:27:32;;;;;;;8.87;7.80;;;;;;;2.43;100.00;96186.00;5035891;28;20445;-77
2022/12/05 07:29:59;;;;;;;9.20;7.50;;;;;;;2.61;100.00;96208.78;5039230;28;20446;-78
2022/12/05 07:32:31;;;;;;;7.70;6.63;;;;;;;2.63;100.00;96205.88;5034587;28;20484;-77
2022/12/05 07:35:01;;;;;;;8.17;6.80;;;;;;;2.56;100.00;96206.22;5037549;28;20516;-77
2022/12/05 07:37:28;;;;;;;7.97;7.17;;;;;;;2.22;100.00;96164.56;5024450;28;20454;-77
2022/12/05 07:39:55;;;;;;;9.00;7.27;;;;;;;2.42;100.00;96205.34;5036760;28;20536;-77
2022/12/05 07:42:22;;;;;;;8.17;7.47;;;;;;;2.56;100.00;96228.94;5025242;28;20435;-77
2022/12/05 07:44:48;;;;;;;10.70;7.57;;;;;;;2.47;100.00;96222.75;5036529;28;20443;-77
2022/12/05 07:47:15;;;;;;;7.90;6.57;;;;;;;2.33;100.00;96212.97;5023268;28;20427;-77
2022/12/05 07:49:42;;;;;;;10.23;9.10;;;;;;;2.57;100.00;96259.97;5036228;28;20474;-77
2022/12/05 07:52:08;;;;;;;8.33;6.57;;;;;;;2.43;100.00;96242.63;5031921;28;20542;-77
2022/12/05 07:54:35;;;;;;;6.83;6.17;;;;;;;2.47;100.00;96252.22;5028747;28;20470;-77
2022/12/05 07:57:02;;;;;;;9.60;7.20;;;;;;;2.51;100.00;96263.66;5042033;28;20430;-76
2022/12/05 07:59:28;;;;;;;8.53;6.87;;;;;;;2.58;100.00;96269.34;5053689;28;20421;-77
2022/12/05 08:01:55;;;;;;;7.67;6.90;;;;;;;2.48;100.00;96258.22;5055087;28;20537;-77
2022/12/05 08:04:22;;;;;;;6.23;5.63;;;;;;;2.51;100.00;96260.28;5052968;28;20432;-77
2022/12/05 08:06:49;;;;;;;6.37;5.53;;;;;;;2.54;100.00;96262.38;5028629;28;20430;-77
2022/12/05 08:09:15;;;;;;;8.67;6.80;;;;;;;2.44;100.00;96257.22;5033684;28;20569;-77
2022/12/05 08:11:42;;;;;;;8.87;7.10;;;;;;;2.63;100.00;96271.91;5036441;28;20485;-77
2022/12/05 08:14:15;;;;;;;7.30;6.60;;;;;;;2.30;100.00;96244.06;5053325;28;20424;-77
2022/12/05 08:16:41;;;;;;;6.40;5.53;;;;;;;2.32;100.00;96250.56;5050558;28;20527;-76
2022/12/05 08:19:15;;;;;;;7.20;6.20;;;;;;;2.54;100.00;96293.66;5034976;28;20426;-76
2022/12/05 08:21:42;;;;;;;7.13;6.33;;;;;;;2.21;100.00;96251.69;5009952;28;20474;-77
2022/12/05 08:24:10;;;;;;;8.00;6.30;;;;;;;2.50;100.00;96297.88;5029623;28;20517;-76
2022/12/05 08:26:40;;;;;;;9.90;7.23;;;;;;;2.32;100.00;96278.47;5030677;28;20513;-76
2022/12/05 08:29:10;;;;;;;10.47;7.27;;;;;;;2.49;100.00;96293.69;5029505;28;20465;-76
2022/12/05 08:31:42;;;;;;;8.70;7.73;;;;;;;2.26;100.00;96282.16;5029286;28;20466;-76
2022/12/05 08:34:11;;;;;;;6.87;6.23;;;;;;;2.24;100.00;96295.47;5029292;28;20812;-76
2022/12/05 08:36:39;;;;;;;7.83;7.03;;;;;;;2.41;100.00;96317.78;5029441;28;20510;-76
2022/12/05 08:39:08;;;;;;;11.33;8.97;;;;;;;2.37;100.00;96320.94;5035831;28;20527;-76
2022/12/05 08:41:35;;;;;;;8.10;6.50;;;;;;;2.33;100.00;96309.50;5036253;28;20450;-76
2022/12/05 08:44:04;;;;;;;6.77;5.90;;;;;;;2.38;100.00;96329.53;5035729;28;20443;-76
2022/12/05 08:46:33;;;;;;;8.73;6.90;;;;;;;2.23;100.00;96308.78;5048683;28;20441;-76
2022/12/05 08:49:00;;;;;;;7.00;6.27;;;;;;;2.17;100.00;96308.06;5030547;28;20571;-76
2022/12/05 08:51:27;;;;;;;9.37;6.67;;;;;;;2.15;100.00;96315.38;5044716;28;20453;-76
2022/12/05 08:53:55;;;;;;;9.10;6.90;;;;;;;2.37;100.00;96339.19;5050457;28;20436;-76
2022/12/05 08:56:22;;;;;;;9.03;7.00;;;;;;;2.43;100.00;96347.75;5047763;28;20453;-76
2022/12/05 08:58:54;;;;;;;7.63;6.30;;;;;;;2.36;100.00;96344.69;5028988;28;20415;-76
2022/12/05 09:01:32;;;;;;;8.43;7.50;;;;;;;2.23;100.00;96314.78;5028630;28;20469;-76
2022/12/05 09:04:00;;;;;;;9.63;7.20;;;;;;;2.34;100.00;96350.16;5030339;28;20813;-76
2022/12/05 09:06:28;;;;;;;11.13;7.80;;;;;;;2.24;100.00;96342.41;5028824;28;20459;-76
2022/12/05 09:08:57;;;;;;;7.70;6.90;;;;;;;2.15;100.00;96338.84;5028883;28;20861;-76
2022/12/05 09:11:29;;;;;;;12.33;10.33;;;;;;;2.11;100.00;96335.19;5030075;28;21037;-77
2022/12/05 09:13:57;;;;;;;9.23;8.30;;;;;;;2.33;100.00;96368.72;5030974;28;20472;-76
2022/12/05 09:16:30;;;;;;;10.17;8.37;;;;;;;2.12;100.00;96356.84;5034056;28;20617;-76
2022/12/05 09:19:12;;;;;;;12.93;8.13;;;;;;;2.26;100.00;96376.81;5046605;28;20422;-76
2022/12/05 09:21:40;;;;;;;9.40;8.27;;;;;;;2.26;100.00;96376.81;5033059;28;21024;-77
2022/12/05 09:24:08;;;;;;;10.60;7.17;;;;;;;2.05;100.00;96342.28;5034610;28;20434;-76
2022/12/05 09:26:38;;;;;;;10.17;7.40;;;;;;;2.35;100.00;96387.47;5045533;28;20433;-76
2022/12/05 09:29:04;;;;;;;9.17;7.23;;;;;;;1.84;100.00;96317.41;5034977;28;20471;-76
2022/12/05 09:31:35;;;;;;;9.73;8.07;;;;;;;2.25;100.00;96367.44;5029622;28;20462;-76
2022/12/05 09:34:02;;;;;;;8.50;7.67;;;;;;;2.27;100.00;96378.41;5032691;28;20418;-76
2022/12/05 09:36:30;;;;;;;9.90;7.90;;;;;;;2.21;100.00;96376.09;5015892;28;20473;-76
2022/12/05 09:39:03;;;;;;;10.37;9.00;;;;;;;2.33;100.00;96385.13;5032235;28;20469;-76
2022/12/05 09:45:00;;;;;;;10.93;7.87;;;;;;;2.27;100.00;96377.59;5032239;28;20464;-76
2022/12/05 09:47:56;;;;;;;8.27;7.20;;;;;;;2.32;100.00;96382.81;5021506;28;20441;-76
2022/12/05 09:50:27;;;;;;;16.77;9.07;;;;;;;2.40;100.00;96390.03;5015421;28;20550;-76
2022/12/05 09:53:18;;;;;;;11.27;9.60;;;;;;;2.31;100.00;96389.06;5039638;28;20429;-76
2022/12/05 09:55:53;;;;;;;11.47;8.50;;;;;;;2.36;100.00;96391.63;5032008;28;20494;-76
2022/12/05 09:58:32;;;;;;;12.80;9.60;;;;;;;2.28;100.00;96393.00;5050898;28;20503;-76
2022/12/05 10:01:10;;;;;;;13.73;11.20;;;;;;;2.23;100.00;96387.81;5038093;28;20549;-76
2022/12/05 10:03:45;;;;;;;18.93;13.40;;;;;;;2.32;100.00;96399.22;5031990;28;20415;-76
2022/12/05 10:06:35;;;;;;;12.47;8.93;;;;;;;2.32;100.00;96401.84;5032252;28;20426;-76
2022/12/05 10:09:40;;;;;;;11.03;9.00;;;;;;;2.32;100.00;96401.84;5022198;28;20427;-76
2022/12/05 10:12:23;;;;;;;14.10;9.10;;;;;;;2.17;100.00;96375.09;5041524;28;20446;-76
2022/12/05 10:15:04;;;;;;;10.07;7.47;;;;;;;2.27;100.00;96401.06;4999784;28;20460;-76
2022/12/05 10:17:40;;;;;;;10.27;9.07;;;;;;;2.12;100.00;96377.72;5014742;28;20907;-76
2022/12/05 10:20:24;;;;;;;12.73;8.37;;;;;;;2.07;100.00;96383.75;5031817;28;20461;-76
2022/12/05 10:23:17;;;;;;;12.70;9.20;;;;;;;2.24;100.00;96397.19;5018227;28;20458;-76
2022/12/05 10:26:12;;;;;;;11.73;9.50;;;;;;;2.23;100.00;96385.19;5032155;28;20434;-76
2022/12/05 10:28:55;;;;;;;12.33;9.40;;;;;;;2.27;100.00;96388.84;5031961;28;20426;-76
2022/12/05 10:31:26;;;;;;;11.13;8.67;;;;;;;2.36;100.00;96387.19;5026221;28;20458;-76
2022/12/05 10:34:02;;;;;;;12.63;8.70;;;;;;;2.29;100.00;96391.19;5031605;28;20442;-76
2022/12/05 10:36:30;;;;;;;14.80;8.43;;;;;;;2.36;100.00;96392.41;5032570;28;20546;-77
2022/12/05 10:38:58;;;;;;;10.37;8.87;;;;;;;2.22;100.00;96370.59;5031046;28;20533;-76
2022/12/05 10:41:25;;;;;;;12.10;9.53;;;;;;;2.35;100.00;96385.63;5031231;28;20467;-77
2022/12/05 10:43:52;;;;;;;15.57;11.03;;;;;;;2.22;100.00;96372.44;5016427;28;20961;-77
2022/12/05 10:46:18;;;;;;;9.33;8.30;;;;;;;2.36;100.00;96381.19;5032902;28;20423;-77
2022/12/05 10:48:45;;;;;;;13.13;10.27;;;;;;;1.82;100.00;96301.25;5021602;28;20447;-79
2022/12/05 10:51:19;;;;;;;9.37;8.37;;;;;;;2.28;100.00;96387.78;5040704;28;20481;-77
2022/12/05 10:53:49;;;;;;;10.90;9.27;;;;;;;2.23;100.00;96369.56;5018007;28;20918;-76
2022/12/05 10:56:36;;;;;;;10.60;8.67;;;;;;;2.34;100.00;96383.31;5030930;28;20462;-78
2022/12/05 10:59:04;;;;;;;12.37;9.07;;;;;;;2.33;100.00;96385.13;5031068;28;20481;-76
2022/12/05 11:01:31;;;;;;;10.13;8.43;;;;;;;2.20;100.00;96361.50;5030625;28;20490;-76
2022/12/05 11:04:20;;;;;;;8.80;7.90;;;;;;;2.21;100.00;96368.25;5032812;28;20448;-76
2022/12/05 11:07:01;;;;;;;10.20;8.73;;;;;;;2.41;100.00;96389.00;5032045;28;20407;-76
2022/12/05 11:09:34;;;;;;;9.27;8.30;;;;;;;2.35;100.00;96382.25;5031991;28;20957;-76
2022/12/05 11:12:25;;;;;;;40.20;25.37;;;;;;;2.44;100.00;96388.47;5032551;28;20427;-76
2022/12/05 11:14:56;;;;;;;41.23;27.83;;;;;;;2.44;100.00;96379.84;5018071;28;20846;-76
2022/12/05 11:17:30;;;;;;;115.67;64.27;;;;;;;2.31;100.00;96358.53;5044008;28;20554;-75
2022/12/05 11:19:57;;;;;;;20.50;17.00;;;;;;;2.14;100.00;96341.69;5031122;28;20452;-76
2022/12/05 11:22:32;;;;;;;84.40;50.53;;;;;;;2.42;100.00;96395.78;5031582;28;20541;-76
2022/12/05 11:24:59;;;;;;;17.33;12.50;;;;;;;2.18;100.00;96366.22;5039581;28;20520;-76
2022/12/05 11:27:29;;;;;;;17.00;12.07;;;;;;;2.39;100.00;96383.25;5031736;28;20522;-76
2022/12/05 11:30:17;;;;;;;11.63;9.47;;;;;;;2.16;100.00;96358.66;5027748;28;20883;-77
2022/12/05 11:32:44;;;;;;;10.33;8.13;;;;;;;2.12;100.00;96354.25;5015107;28;20502;-76
2022/12/05 11:35:11;;;;;;;8.40;7.17;;;;;;;2.44;100.00;96380.63;5026050;28;20457;-76
2022/12/05 11:37:47;;;;;;;9.33;7.70;;;;;;;2.24;100.00;96345.03;5014809;28;20457;-77
2022/12/05 11:40:17;;;;;;;10.40;8.20;;;;;;;2.30;100.00;96356.22;5015164;28;20475;-77
2022/12/05 11:43:20;;;;;;;16.60;12.53;;;;;;;2.50;100.00;96376.91;5034023;28;20452;-76
2022/12/05 11:46:29;;;;;;;10.03;8.87;;;;;;;2.39;100.00;96365.00;5053592;28;20454;-77
2022/12/05 11:49:04;;;;;;;9.90;6.97;;;;;;;2.26;100.00;96361.19;4990573;28;20448;-77
2022/12/05 11:51:52;;;;;;;11.93;8.77;;;;;;;2.37;100.00;96349.63;5020938;28;20552;-76
2022/12/05 11:54:50;;;;;;;8.47;6.93;;;;;;;2.55;100.00;96373.50;5039999;28;20427;-76
2022/12/05 11:57:57;;;;;;;8.53;7.13;;;;;;;2.48;100.00;96367.81;5021110;28;20469;-77
2022/12/05 12:00:36;;;;;;;8.90;7.13;;;;;;;2.25;100.00;96343.97;5043513;28;20537;-76